Time;durP1;ratioP1;P1;durP2;ratioP2;P2;SDS_P1;SDS_P2;PMS_P1;PMS_P2;Temp;Humidity;BMP_temperature;BMP_pressure;BME280_temperature;BME280_humidity;BME280_pressure;Samples;Min_cycle;Max_cycle;Signal;HPM_P1;HPM_P2
2022/11/04 00:01:07;;;;;;;5.18;1.33;;;19.70;99.90;;;;;;5036599;28;21604;-77
2022/11/04 00:03:37;;;;;;;5.00;1.20;;;19.90;99.90;;;;;;5039458;28;20201;-77
2022/11/04 00:06:09;;;;;;;4.88;1.27;;;20.00;99.90;;;;;;5038672;28;20196;-77
2022/11/04 00:08:42;;;;;;;5.78;1.67;;;20.10;99.90;;;;;;5042083;28;20775;-77
2022/11/04 00:14:01;;;;;;;6.72;1.20;;;20.30;99.90;;;;;;5040215;28;20260;-78
2022/11/04 00:19:19;;;;;;;3.45;1.20;;;20.70;99.90;;;;;;5040924;28;20269;-77
2022/11/04 00:30:13;;;;;;;3.72;1.00;;;21.50;99.90;;;;;;5037928;28;20247;-78
2022/11/04 00:35:31;;;;;;;3.65;0.90;;;21.90;99.90;;;;;;5044087;28;20637;-78
2022/11/04 00:38:03;;;;;;;3.22;1.08;;;21.90;99.90;;;;;;5049947;28;20580;-78
2022/11/04 00:40:36;;;;;;;4.53;0.93;;;22.00;99.90;;;;;;5064036;28;20249;-77
2022/11/04 00:43:07;;;;;;;3.83;0.90;;;22.00;99.90;;;;;;5061383;28;20299;-77
2022/11/04 00:45:38;;;;;;;4.00;1.90;;;22.10;99.90;;;;;;5052453;28;20279;-78
2022/11/04 00:48:09;;;;;;;3.22;0.93;;;22.10;99.90;;;;;;5052279;28;20211;-78
2022/11/04 00:50:40;;;;;;;4.13;0.90;;;22.10;99.90;;;;;;5052747;28;20250;-77
2022/11/04 00:53:11;;;;;;;4.38;1.25;;;22.10;99.90;;;;;;5071599;28;20638;-78
2022/11/04 00:55:44;;;;;;;3.47;1.17;;;22.10;99.90;;;;;;5041606;28;20336;-78
2022/11/04 00:58:15;;;;;;;6.13;2.60;;;22.30;99.90;;;;;;5041875;28;20203;-78
2022/11/04 01:00:46;;;;;;;3.10;1.10;;;22.50;99.90;;;;;;5044420;28;20199;-77
2022/11/04 01:03:17;;;;;;;4.28;0.85;;;22.70;99.90;;;;;;5053437;28;20546;-77
2022/11/04 01:05:48;;;;;;;6.10;1.20;;;22.80;99.90;;;;;;5041936;28;20207;-77
2022/11/04 01:08:20;;;;;;;3.08;1.05;;;22.80;99.90;;;;;;5041577;28;20734;-77
2022/11/04 01:10:53;;;;;;;2.35;0.90;;;22.80;99.90;;;;;;5041157;28;20200;-76
2022/11/04 01:13:24;;;;;;;3.70;1.05;;;22.70;99.90;;;;;;5040805;28;20196;-77
2022/11/04 01:15:55;;;;;;;3.95;1.00;;;22.70;99.90;;;;;;5042936;28;20207;-77
2022/11/04 01:18:26;;;;;;;5.20;1.15;;;22.80;99.90;;;;;;5040839;28;20950;-77
2022/11/04 01:21:01;;;;;;;5.03;1.00;;;22.90;99.90;;;;;;5040262;28;20305;-77
2022/11/04 01:23:32;;;;;;;4.80;1.02;;;22.90;99.90;;;;;;5041270;28;20229;-77
2022/11/04 01:26:08;;;;;;;5.28;1.25;;;22.80;99.90;;;;;;5042688;28;20527;-77
2022/11/04 01:28:39;;;;;;;3.88;0.90;;;23.10;99.90;;;;;;5057530;28;20222;-77
2022/11/04 01:31:10;;;;;;;8.38;1.30;;;23.10;99.90;;;;;;5051246;28;20569;-78
2022/11/04 01:33:42;;;;;;;4.00;0.90;;;23.30;99.90;;;;;;5041634;28;20771;-78
2022/11/04 01:36:14;;;;;;;6.05;1.20;;;23.20;99.90;;;;;;5045409;28;20197;-77
2022/11/04 01:38:45;;;;;;;5.00;1.00;;;23.40;99.90;;;;;;5043645;28;20189;-76
2022/11/04 01:41:22;;;;;;;3.83;0.88;;;23.40;99.90;;;;;;5047537;28;20203;-77
2022/11/04 01:43:55;;;;;;;4.30;1.13;;;23.50;99.90;;;;;;5041401;28;20283;-77
2022/11/04 01:46:36;;;;;;;5.15;1.15;;;23.30;99.90;;;;;;5044686;28;20204;-76
2022/11/04 01:49:24;;;;;;;8.85;1.30;;;23.10;99.90;;;;;;5043676;28;20287;-76
2022/11/04 01:51:59;;;;;;;4.88;1.05;;;22.90;99.90;;;;;;5046888;28;20216;-77
2022/11/04 01:54:31;;;;;;;4.10;1.25;;;22.50;99.90;;;;;;5055474;28;20597;-77
2022/11/04 01:57:07;;;;;;;3.28;1.15;;;22.20;99.90;;;;;;5045490;28;20205;-76
2022/11/04 01:59:41;;;;;;;3.95;1.27;;;22.10;99.90;;;;;;5044204;28;20225;-76
2022/11/04 02:02:12;;;;;;;5.90;1.30;;;22.10;99.90;;;;;;5041107;28;20278;-76
2022/11/04 02:04:43;;;;;;;3.85;0.90;;;22.10;99.90;;;;;;5045794;28;20201;-76
2022/11/04 02:07:15;;;;;;;3.00;0.90;;;22.10;99.90;;;;;;5048049;28;20210;-75
2022/11/04 02:09:48;;;;;;;5.20;1.08;;;22.10;99.90;;;;;;5049418;28;20195;-76
2022/11/04 02:15:07;;;;;;;5.45;1.20;;;21.80;99.90;;;;;;5040913;28;20841;-76
2022/11/04 02:18:07;;;;;;;5.57;1.33;;;21.70;99.90;;;;;;5041793;28;20247;-77
2022/11/04 02:21:08;;;;;;;3.85;1.00;;;21.70;99.90;;;;;;5040124;28;20196;-76
2022/11/04 02:24:06;;;;;;;5.18;1.13;;;21.70;99.90;;;;;;5036380;28;20262;-77
2022/11/04 02:27:17;;;;;;;2.92;1.00;;;21.70;99.90;;;;;;5040202;28;20705;-76
2022/11/04 02:30:02;;;;;;;4.40;1.13;;;21.70;99.90;;;;;;5001571;28;20205;-76
2022/11/04 02:32:43;;;;;;;4.18;1.20;;;21.70;99.90;;;;;;5003085;28;20220;-77
2022/11/04 02:35:23;;;;;;;4.47;1.10;;;21.70;99.90;;;;;;5042317;28;20236;-77
2022/11/04 02:38:00;;;;;;;6.15;1.20;;;21.70;99.90;;;;;;5070720;28;20215;-76
2022/11/04 02:40:39;;;;;;;4.88;1.13;;;21.90;99.90;;;;;;5065538;28;20200;-76
2022/11/04 02:43:16;;;;;;;7.47;1.27;;;22.20;99.90;;;;;;5041546;28;20200;-76
2022/11/04 02:45:51;;;;;;;2.95;0.90;;;22.40;99.90;;;;;;5039714;28;20679;-76
2022/11/04 02:48:26;;;;;;;5.00;0.90;;;22.40;99.90;;;;;;5039722;28;20195;-76
2022/11/04 02:51:03;;;;;;;2.78;0.93;;;22.30;99.90;;;;;;5040150;28;20196;-77
2022/11/04 02:53:39;;;;;;;5.18;1.58;;;22.40;99.90;;;;;;5046653;28;20196;-77
2022/11/04 02:56:13;;;;;;;5.85;1.30;;;22.60;99.90;;;;;;5040673;28;20290;-76
2022/11/04 02:58:49;;;;;;;2.90;1.00;;;22.80;99.90;;;;;;5039086;28;20204;-76
2022/11/04 03:01:26;;;;;;;3.42;1.10;;;22.70;99.90;;;;;;5041122;28;20219;-77
2022/11/04 03:04:02;;;;;;;3.70;0.88;;;22.90;99.90;;;;;;5041621;28;20196;-77
2022/11/04 03:06:35;;;;;;;4.82;1.10;;;22.90;99.90;;;;;;5038901;28;21767;-77
2022/11/04 03:09:08;;;;;;;5.30;1.08;;;22.90;99.90;;;;;;5041167;28;20301;-76
2022/11/04 03:11:43;;;;;;;3.05;0.82;;;22.90;99.90;;;;;;5039451;28;20667;-76
2022/11/04 03:14:18;;;;;;;5.60;1.00;;;22.90;99.90;;;;;;5044182;28;20333;-73
2022/11/04 03:16:55;;;;;;;5.63;1.38;;;22.80;99.90;;;;;;5043513;28;20228;-76
2022/11/04 03:19:33;;;;;;;2.78;0.90;;;23.10;99.90;;;;;;5039072;28;20211;-76
2022/11/04 03:22:06;;;;;;;4.38;1.20;;;23.50;99.90;;;;;;5039284;28;20196;-76
2022/11/04 03:24:37;;;;;;;7.32;1.05;;;23.60;99.90;;;;;;5038554;28;20203;-75
2022/11/04 03:27:17;;;;;;;3.53;1.00;;;23.60;99.90;;;;;;5038628;28;20207;-76
2022/11/04 03:29:55;;;;;;;2.65;1.10;;;23.60;99.90;;;;;;5039711;28;20732;-76
2022/11/04 03:32:37;;;;;;;4.38;1.20;;;23.80;99.90;;;;;;5038490;28;20241;-79
2022/11/04 03:35:09;;;;;;;5.47;1.20;;;23.90;99.90;;;;;;5040743;28;20714;-78
2022/11/04 03:37:40;;;;;;;3.90;1.00;;;24.10;99.90;;;;;;5040454;28;20222;-78
2022/11/04 03:40:12;;;;;;;5.72;1.13;;;23.90;99.90;;;;;;5045273;28;20208;-74
2022/11/04 03:42:48;;;;;;;3.63;0.95;;;23.70;99.90;;;;;;5038191;28;20295;-77
2022/11/04 03:45:19;;;;;;;4.38;1.30;;;23.70;99.90;;;;;;5037905;28;20227;-78
2022/11/04 03:47:53;;;;;;;2.88;1.10;;;23.70;99.90;;;;;;5039170;28;20196;-75
2022/11/04 03:50:29;;;;;;;3.70;0.95;;;23.80;99.90;;;;;;5039699;28;21200;-78
2022/11/04 03:53:02;;;;;;;6.72;1.25;;;23.60;99.90;;;;;;5039159;28;20196;-78
2022/11/04 03:55:42;;;;;;;4.13;1.15;;;23.50;99.90;;;;;;5033338;28;20267;-75
2022/11/04 03:58:25;;;;;;;5.82;1.20;;;23.30;99.90;;;;;;5033996;28;20229;-77
2022/11/04 04:01:05;;;;;;;4.03;1.23;;;23.00;99.90;;;;;;5037709;28;20204;-77
2022/11/04 04:03:44;;;;;;;3.78;1.00;;;22.90;99.90;;;;;;5038348;28;20247;-77
2022/11/04 04:06:20;;;;;;;4.43;0.93;;;22.50;99.90;;;;;;5037487;28;20200;-77
2022/11/04 04:08:56;;;;;;;3.08;0.90;;;22.40;99.90;;;;;;5037043;28;20227;-76
2022/11/04 04:11:41;;;;;;;3.88;1.20;;;22.30;99.90;;;;;;5037799;28;20283;-77
2022/11/04 04:17:09;;;;;;;3.22;0.77;;;22.10;99.90;;;;;;5042601;28;20941;-76
2022/11/04 04:19:44;;;;;;;5.63;1.10;;;22.10;99.90;;;;;;5038737;28;20231;-76
2022/11/04 04:22:19;;;;;;;4.00;1.02;;;22.10;99.90;;;;;;5042295;28;20220;-76
2022/11/04 04:27:52;;;;;;;4.25;1.00;;;22.10;99.90;;;;;;5038555;28;20214;-77
2022/11/04 04:30:23;;;;;;;4.95;1.20;;;22.10;99.90;;;;;;5038478;28;20211;-76
2022/11/04 04:32:58;;;;;;;3.05;1.10;;;22.20;99.90;;;;;;5036261;28;20779;-76
2022/11/04 04:35:45;;;;;;;3.72;1.10;;;22.20;99.90;;;;;;5038845;28;20224;-76
2022/11/04 04:47:07;;;;;;;4.93;1.20;;;23.40;99.90;;;;;;5032677;28;20223;-75
2022/11/04 04:49:38;;;;;;;2.90;0.95;;;23.20;99.90;;;;;;5037159;28;20305;-76
2022/11/04 04:52:11;;;;;;;4.50;1.00;;;23.10;99.90;;;;;;5038785;28;20196;-76
2022/11/04 04:54:43;;;;;;;3.75;1.30;;;23.10;99.90;;;;;;5042122;28;20242;-76
2022/11/04 04:57:15;;;;;;;3.78;1.20;;;23.50;99.90;;;;;;5041180;28;20383;-76
2022/11/04 04:59:46;;;;;;;3.03;0.90;;;24.00;99.90;;;;;;5040615;28;20226;-76
2022/11/04 05:02:17;;;;;;;3.42;1.05;;;23.90;99.90;;;;;;5041657;28;20288;-77
2022/11/04 05:04:48;;;;;;;2.72;0.98;;;23.50;99.90;;;;;;5042094;28;20212;-77
2022/11/04 05:07:21;;;;;;;4.60;1.23;;;23.00;99.90;;;;;;5038834;28;20306;-76
2022/11/04 05:09:53;;;;;;;3.75;1.20;;;22.70;99.90;;;;;;5039613;28;20255;-76
2022/11/04 05:12:24;;;;;;;5.25;1.20;;;22.40;99.90;;;;;;5039994;28;20682;-76
2022/11/04 05:14:55;;;;;;;3.95;1.05;;;22.30;99.90;;;;;;5039413;28;20238;-76
2022/11/04 05:17:27;;;;;;;3.10;1.05;;;22.30;99.90;;;;;;5049399;28;21307;-76
2022/11/04 05:19:58;;;;;;;4.45;1.20;;;22.10;99.90;;;;;;5048960;28;20276;-78
2022/11/04 05:22:32;;;;;;;4.43;1.20;;;22.10;99.90;;;;;;5048751;28;20220;-77
2022/11/04 05:25:02;;;;;;;5.55;1.30;;;22.10;99.90;;;;;;5048296;28;20305;-77
2022/11/04 05:27:34;;;;;;;4.85;1.13;;;22.50;99.90;;;;;;5057756;28;20226;-76
2022/11/04 05:30:07;;;;;;;4.47;1.00;;;23.30;99.90;;;;;;5049246;28;20244;-77
2022/11/04 05:32:38;;;;;;;3.95;0.90;;;23.80;99.90;;;;;;5047860;28;20223;-79
2022/11/04 05:35:11;;;;;;;4.28;1.10;;;23.60;99.90;;;;;;5045280;28;20567;-78
2022/11/04 05:37:43;;;;;;;4.40;1.05;;;23.20;99.90;;;;;;5044669;28;20874;-78
2022/11/04 05:40:15;;;;;;;2.85;0.95;;;23.10;99.90;;;;;;5053519;28;20205;-78
2022/11/04 05:42:49;;;;;;;4.18;1.20;;;22.90;99.90;;;;;;5045438;28;20303;-78
2022/11/04 05:45:20;;;;;;;4.22;1.10;;;23.30;99.90;;;;;;5046934;28;20275;-78
2022/11/04 05:47:51;;;;;;;5.82;1.35;;;24.00;99.90;;;;;;5041909;28;20228;-77
2022/11/04 05:50:29;;;;;;;5.07;1.20;;;24.50;99.90;;;;;;5046384;28;20274;-76
2022/11/04 05:53:04;;;;;;;5.28;1.40;;;25.20;99.90;;;;;;5047479;28;20667;-77
2022/11/04 05:55:36;;;;;;;2.88;0.77;;;25.80;99.90;;;;;;5048445;28;20701;-77
2022/11/04 05:58:08;;;;;;;5.40;1.20;;;26.30;99.90;;;;;;5055427;28;20371;-78
2022/11/04 06:00:39;;;;;;;2.95;0.93;;;26.40;99.90;;;;;;5049793;28;20217;-78
2022/11/04 06:03:11;;;;;;;2.22;0.93;;;26.50;99.90;;;;;;5053124;28;20244;-77
2022/11/04 06:05:42;;;;;;;2.33;1.00;;;26.60;99.20;;;;;;5048578;28;20180;-76
2022/11/04 06:08:15;;;;;;;3.25;0.80;;;26.80;99.60;;;;;;5045055;28;20224;-77
2022/11/04 06:10:46;;;;;;;1.77;0.85;;;26.90;97.70;;;;;;5047090;28;20700;-77
2022/11/04 06:13:18;;;;;;;4.75;1.15;;;27.20;95.50;;;;;;5047791;28;20196;-78
2022/11/04 06:15:49;;;;;;;3.17;0.75;;;27.10;94.80;;;;;;5052935;28;20228;-77
2022/11/04 06:18:20;;;;;;;3.63;0.98;;;26.70;94.40;;;;;;5050887;28;20235;-77
2022/11/04 06:21:28;;;;;;;3.63;0.82;;;26.80;94.50;;;;;;5048384;28;20196;-78
2022/11/04 06:24:05;;;;;;;3.40;1.25;;;26.30;94.30;;;;;;5039393;28;20200;-77
2022/11/04 06:26:38;;;;;;;2.80;1.08;;;26.30;95.70;;;;;;5056637;28;20195;-77
2022/11/04 06:29:10;;;;;;;2.95;0.90;;;26.30;96.30;;;;;;5049365;28;20238;-78
2022/11/04 06:31:45;;;;;;;4.22;0.90;;;26.70;95.60;;;;;;5051427;28;20219;-78
2022/11/04 06:34:16;;;;;;;3.50;1.10;;;27.10;93.60;;;;;;5055668;28;20246;-78
2022/11/04 06:36:47;;;;;;;3.33;0.98;;;27.00;92.70;;;;;;5046287;28;20548;-79
2022/11/04 06:39:20;;;;;;;3.10;1.08;;;26.90;92.40;;;;;;5057454;28;20219;-78
2022/11/04 06:41:51;;;;;;;6.20;1.33;;;26.70;93.40;;;;;;5047402;28;20875;-76
2022/11/04 06:44:27;;;;;;;4.25;1.30;;;27.30;92.90;;;;;;5050290;28;20634;-78
2022/11/04 06:46:57;;;;;;;2.75;0.95;;;27.50;90.70;;;;;;5048440;28;20192;-77
2022/11/04 06:49:29;;;;;;;4.00;0.90;;;27.90;91.00;;;;;;5047819;28;20204;-77
2022/11/04 06:52:00;;;;;;;6.20;1.30;;;27.80;88.60;;;;;;5049000;28;20291;-79
2022/11/04 06:54:33;;;;;;;4.28;1.10;;;27.50;88.60;;;;;;5048693;28;20886;-78
2022/11/04 06:57:07;;;;;;;2.28;0.80;;;27.10;91.00;;;;;;5043242;28;20227;-77
2022/11/04 06:59:39;;;;;;;4.88;1.13;;;27.40;90.70;;;;;;5041257;28;20201;-79
2022/11/04 07:02:12;;;;;;;3.75;1.00;;;27.40;90.10;;;;;;5039294;28;20229;-79
2022/11/04 07:04:43;;;;;;;3.42;0.95;;;26.90;90.20;;;;;;5042736;28;20918;-78
2022/11/04 07:07:14;;;;;;;2.67;1.08;;;25.90;92.90;;;;;;5044361;28;20230;-78
2022/11/04 07:09:49;;;;;;;3.72;1.02;;;26.00;94.00;;;;;;5043455;28;20698;-78
2022/11/04 07:12:21;;;;;;;2.47;1.02;;;26.50;92.90;;;;;;5043264;28;20250;-79
2022/11/04 07:14:52;;;;;;;4.13;1.77;;;26.70;92.50;;;;;;5041663;28;20339;-77
2022/11/04 07:17:23;;;;;;;6.20;1.70;;;26.70;92.40;;;;;;5041935;28;20239;-78
2022/11/04 07:19:54;;;;;;;2.78;1.20;;;26.80;92.30;;;;;;5042654;28;20220;-77
2022/11/04 07:22:25;;;;;;;4.20;1.23;;;26.90;92.00;;;;;;5041514;28;20208;-78
2022/11/04 07:24:58;;;;;;;3.55;1.40;;;26.80;92.10;;;;;;5042063;28;20284;-78
2022/11/04 07:27:29;;;;;;;2.92;1.13;;;26.70;92.40;;;;;;5037689;28;20204;-78
2022/11/04 07:29:59;;;;;;;3.42;1.25;;;26.60;92.70;;;;;;5039049;28;20215;-77
2022/11/04 07:32:30;;;;;;;4.15;1.30;;;26.40;92.90;;;;;;5039575;28;20228;-77
2022/11/04 07:35:02;;;;;;;3.22;1.35;;;26.10;93.40;;;;;;5039661;28;20205;-77
2022/11/04 07:37:33;;;;;;;5.13;1.50;;;25.60;95.10;;;;;;5038314;28;20235;-78
2022/11/04 07:40:06;;;;;;;4.18;1.38;;;25.10;98.10;;;;;;5050909;28;20204;-77
2022/11/04 07:42:37;;;;;;;2.58;1.08;;;24.60;99.90;;;;;;5042097;28;20197;-77
2022/11/04 07:45:11;;;;;;;4.10;1.23;;;24.10;99.90;;;;;;5046441;28;20195;-77
2022/11/04 07:47:42;;;;;;;4.95;1.30;;;23.70;99.90;;;;;;5037828;28;20291;-76
2022/11/04 07:50:13;;;;;;;6.18;1.20;;;23.50;99.90;;;;;;5036900;28;20200;-76
2022/11/04 07:52:44;;;;;;;5.30;1.35;;;23.10;99.90;;;;;;5036873;28;20196;-76
2022/11/04 07:55:17;;;;;;;3.13;1.20;;;22.80;99.90;;;;;;5038663;28;20253;-77
2022/11/04 07:57:48;;;;;;;5.57;1.70;;;22.50;99.90;;;;;;5039060;28;20815;-78
2022/11/04 08:00:20;;;;;;;4.43;1.25;;;22.30;99.90;;;;;;5038202;28;20720;-78
2022/11/04 08:02:51;;;;;;;4.65;1.30;;;22.00;99.90;;;;;;5042378;28;20675;-78
2022/11/04 08:05:22;;;;;;;6.55;1.50;;;21.80;99.90;;;;;;5037737;28;20201;-77
2022/11/04 08:07:53;;;;;;;6.40;1.48;;;21.60;99.90;;;;;;5037373;28;20192;-77
2022/11/04 08:10:26;;;;;;;4.55;1.30;;;21.60;99.90;;;;;;5037493;28;20203;-77
2022/11/04 08:13:00;;;;;;;4.80;1.00;;;21.50;99.90;;;;;;5036289;28;20205;-77
2022/11/04 08:15:31;;;;;;;4.57;1.30;;;21.20;99.90;;;;;;5037124;28;20381;-77
2022/11/04 08:18:02;;;;;;;10.23;1.73;;;21.20;99.90;;;;;;5037759;28;20321;-78
2022/11/04 08:20:33;;;;;;;6.63;1.40;;;21.10;99.90;;;;;;5038873;28;20559;-77
2022/11/04 08:23:05;;;;;;;6.65;1.23;;;21.00;99.90;;;;;;5038577;28;20210;-76
2022/11/04 08:25:39;;;;;;;5.00;1.73;;;20.90;99.90;;;;;;5039581;28;20235;-78
2022/11/04 08:28:16;;;;;;;4.32;1.40;;;20.80;99.90;;;;;;5039684;28;20215;-78
2022/11/04 08:30:56;;;;;;;5.00;1.48;;;20.80;99.90;;;;;;5040305;28;20199;-78
2022/11/04 08:33:28;;;;;;;5.07;1.27;;;20.70;99.90;;;;;;5042099;28;20889;-78
2022/11/04 08:36:03;;;;;;;9.05;1.40;;;20.70;99.90;;;;;;5043145;28;21476;-78
2022/11/04 08:38:34;;;;;;;7.05;1.45;;;20.60;99.90;;;;;;5041724;28;20195;-78
2022/11/04 08:41:08;;;;;;;4.13;1.27;;;20.60;99.90;;;;;;5041756;28;20200;-77
2022/11/04 08:43:40;;;;;;;4.72;1.30;;;20.50;99.90;;;;;;5050150;28;20200;-77
2022/11/04 08:46:15;;;;;;;3.13;1.15;;;20.40;99.90;;;;;;5052420;28;20207;-77
2022/11/04 08:48:50;;;;;;;6.72;1.40;;;20.40;99.90;;;;;;5050862;28;20231;-77
2022/11/04 08:51:24;;;;;;;6.40;1.50;;;20.40;99.90;;;;;;5053766;28;20200;-78
2022/11/04 08:53:55;;;;;;;6.22;1.30;;;20.40;99.90;;;;;;5045775;28;20334;-78
2022/11/04 08:56:36;;;;;;;5.30;1.35;;;20.30;99.90;;;;;;5060589;28;20302;-81
2022/11/04 08:59:09;;;;;;;5.38;1.55;;;20.20;99.90;;;;;;5058696;28;20198;-78
2022/11/04 09:01:40;;;;;;;3.42;1.13;;;20.30;99.90;;;;;;5058207;28;20239;-77
2022/11/04 09:06:57;;;;;;;7.80;1.90;;;20.20;99.90;;;;;;5050027;28;20666;-78
2022/11/04 09:09:31;;;;;;;6.93;1.95;;;20.20;99.90;;;;;;5045458;28;20192;-78
2022/11/04 09:12:16;;;;;;;3.00;1.20;;;20.10;99.90;;;;;;5048323;28;20694;-77
2022/11/04 09:15:26;;;;;;;5.45;1.40;;;20.10;99.90;;;;;;5060853;28;20192;-81
2022/11/04 09:17:58;;;;;;;4.40;1.35;;;20.00;99.90;;;;;;5048188;28;20302;-78
2022/11/04 09:20:30;;;;;;;3.45;1.10;;;20.00;99.90;;;;;;5062384;28;20249;-77
2022/11/04 09:23:02;;;;;;;4.78;1.40;;;20.00;99.90;;;;;;5053515;28;20636;-79
2022/11/04 09:25:37;;;;;;;5.25;1.30;;;20.00;99.90;;;;;;5047072;28;20239;-78
2022/11/04 09:28:10;;;;;;;5.68;1.60;;;19.90;99.90;;;;;;5042269;28;20207;-78
2022/11/04 09:30:54;;;;;;;4.45;1.52;;;19.90;99.90;;;;;;5049339;28;20305;-78
2022/11/04 09:33:25;;;;;;;4.68;1.08;;;19.90;99.90;;;;;;5049650;28;20683;-77
2022/11/04 09:36:00;;;;;;;5.22;1.60;;;19.90;99.90;;;;;;5041106;28;20228;-78
2022/11/04 09:38:36;;;;;;;2.97;1.30;;;19.90;99.90;;;;;;5049988;28;20253;-78
2022/11/04 09:41:25;;;;;;;3.72;1.48;;;19.90;99.90;;;;;;5050634;28;20195;-78
2022/11/04 09:44:06;;;;;;;4.18;1.23;;;19.90;99.90;;;;;;5038921;28;20963;-79
2022/11/04 09:46:38;;;;;;;2.95;1.33;;;20.00;99.90;;;;;;5038586;28;20734;-78
2022/11/04 09:49:22;;;;;;;;;;;;;;;;;;;;;
2022/11/04 09:51:56;;;;;;;3.58;1.20;;;19.90;99.90;;;;;;5047370;28;20214;-78
2022/11/04 09:54:42;;;;;;;4.50;1.30;;;19.90;99.90;;;;;;5040352;28;20364;-79
2022/11/04 09:57:19;;;;;;;5.40;1.30;;;19.90;99.90;;;;;;5040629;28;20694;-78
2022/11/04 09:59:52;;;;;;;5.72;1.17;;;19.90;99.90;;;;;;5038731;28;20823;-78
2022/11/04 10:03:04;;;;;;;2.50;0.93;;;19.90;99.90;;;;;;5053842;28;20192;-81
2022/11/04 10:05:57;;;;;;;7.55;1.20;;;19.90;99.90;;;;;;5061172;28;20214;-79
2022/11/04 10:09:09;;;;;;;4.00;1.30;;;19.90;99.90;;;;;;5053852;28;20202;-82
2022/11/04 10:11:54;;;;;;;5.40;1.20;;;19.90;99.90;;;;;;5063445;28;20211;-80
2022/11/04 10:15:09;;;;;;;3.97;1.10;;;19.90;99.90;;;;;;5057265;28;20195;-79
2022/11/04 10:17:59;;;;;;;3.42;0.90;;;19.80;99.90;;;;;;5042709;28;20267;-79
2022/11/04 10:20:53;;;;;;;4.65;1.15;;;19.80;99.90;;;;;;5054564;28;20836;-78
2022/11/04 10:23:35;;;;;;;5.95;1.30;;;19.80;99.90;;;;;;5054597;28;20211;-79
2022/11/04 10:26:17;;;;;;;2.50;1.00;;;19.70;99.90;;;;;;5050014;28;20220;-78
2022/11/04 10:28:56;;;;;;;2.88;1.00;;;19.80;99.90;;;;;;5044292;28;20204;-78
2022/11/04 10:31:28;;;;;;;7.65;1.20;;;19.70;99.90;;;;;;5046499;28;20568;-76
2022/11/04 10:34:09;;;;;;;4.78;1.02;;;19.70;99.90;;;;;;5046382;28;20203;-77
2022/11/04 10:36:47;;;;;;;5.90;1.13;;;19.70;99.90;;;;;;5051086;28;20242;-79
2022/11/04 10:42:25;;;;;;;3.45;1.15;;;19.60;99.90;;;;;;5062619;28;20224;-78
2022/11/04 10:44:58;;;;;;;7.30;1.10;;;19.60;99.90;;;;;;5045344;28;20219;-78
2022/11/04 10:47:44;;;;;;;2.75;0.90;;;19.60;99.90;;;;;;5043429;28;20204;-78
2022/11/04 10:50:36;;;;;;;4.78;1.10;;;19.60;99.90;;;;;;5040896;28;20713;-77
2022/11/04 10:53:19;;;;;;;6.72;1.40;;;19.60;99.90;;;;;;5071104;28;20211;-78
2022/11/04 10:55:59;;;;;;;4.20;1.17;;;19.60;99.90;;;;;;5050327;28;20212;-78
2022/11/04 10:58:32;;;;;;;2.30;1.02;;;19.50;99.90;;;;;;5046584;28;20690;-77
2022/11/04 11:01:29;;;;;;;4.75;1.35;;;19.60;99.90;;;;;;5047322;28;20204;-78
2022/11/04 11:04:01;;;;;;;4.78;1.50;;;19.50;99.90;;;;;;5049517;28;20208;-78
2022/11/04 11:06:52;;;;;;;2.75;1.10;;;19.50;99.90;;;;;;5047237;28;20218;-77
2022/11/04 11:09:28;;;;;;;4.18;1.20;;;19.50;99.90;;;;;;5050038;28;20210;-78
2022/11/04 11:12:03;;;;;;;4.25;1.23;;;19.50;99.90;;;;;;5047998;28;20207;-78
2022/11/04 11:14:39;;;;;;;3.08;1.17;;;19.40;99.90;;;;;;5047309;28;20666;-78
2022/11/04 11:17:24;;;;;;;4.32;1.20;;;19.50;99.90;;;;;;5048894;28;20303;-78
2022/11/04 11:20:23;;;;;;;3.67;1.17;;;19.40;99.90;;;;;;5047673;28;20423;-78
2022/11/04 11:22:56;;;;;;;5.35;1.35;;;19.40;99.90;;;;;;5046428;28;20206;-77
2022/11/04 11:25:31;;;;;;;3.40;1.08;;;19.40;99.90;;;;;;5046467;28;20224;-78
2022/11/04 11:28:04;;;;;;;4.07;1.00;;;19.40;99.90;;;;;;5044249;28;20195;-78
2022/11/04 11:30:40;;;;;;;3.42;1.08;;;19.40;99.90;;;;;;5039196;28;20318;-77
2022/11/04 11:33:21;;;;;;;5.57;1.27;;;19.40;99.90;;;;;;5059151;28;21541;-78
2022/11/04 11:35:56;;;;;;;3.58;1.33;;;19.40;99.90;;;;;;5047016;28;20234;-78
2022/11/04 11:38:31;;;;;;;4.55;1.30;;;19.40;99.90;;;;;;5047994;28;20239;-78
2022/11/04 11:41:11;;;;;;;5.95;1.05;;;19.40;99.90;;;;;;5053774;28;20195;-77
2022/11/04 11:43:48;;;;;;;4.75;1.13;;;19.40;99.90;;;;;;5043865;28;20207;-78
2022/11/04 11:46:25;;;;;;;6.60;1.38;;;19.30;99.90;;;;;;5049643;28;20202;-78
2022/11/04 11:49:00;;;;;;;5.07;1.42;;;19.30;99.90;;;;;;5047812;28;20286;-78
2022/11/04 11:51:32;;;;;;;7.55;1.48;;;19.30;99.90;;;;;;5046827;28;20280;-78
2022/11/04 11:54:35;;;;;;;3.53;1.20;;;19.30;99.90;;;;;;5047042;28;20237;-76
2022/11/04 11:57:13;;;;;;;2.83;1.05;;;19.20;99.90;;;;;;5020529;28;20217;-75
2022/11/04 11:59:50;;;;;;;3.08;1.05;;;19.20;99.90;;;;;;5046373;28;20638;-77
2022/11/04 12:02:32;;;;;;;5.07;1.40;;;19.10;99.90;;;;;;5053942;28;20223;-77
2022/11/04 12:05:04;;;;;;;5.28;1.40;;;19.10;99.90;;;;;;5052949;28;20245;-78
2022/11/04 12:07:41;;;;;;;4.05;1.13;;;19.20;99.90;;;;;;5049612;28;20192;-77
2022/11/04 12:10:27;;;;;;;5.30;1.42;;;19.10;99.90;;;;;;5050685;28;20278;-78
2022/11/04 12:13:10;;;;;;;3.90;1.23;;;19.00;99.90;;;;;;5050266;28;20196;-79
2022/11/04 12:15:59;;;;;;;5.68;1.30;;;19.10;99.90;;;;;;5048344;28;22430;-78
2022/11/04 12:18:51;;;;;;;3.55;1.30;;;19.10;99.90;;;;;;5046474;28;20767;-79
2022/11/04 12:21:32;;;;;;;6.55;1.48;;;19.10;99.90;;;;;;5040595;28;20246;-78
2022/11/04 12:24:07;;;;;;;3.75;1.50;;;19.10;99.90;;;;;;5044103;28;20200;-79
2022/11/04 12:26:46;;;;;;;4.22;1.65;;;19.00;99.90;;;;;;5044439;28;20200;-78
2022/11/04 12:29:30;;;;;;;3.72;1.10;;;19.00;99.90;;;;;;5044061;28;20206;-78
2022/11/04 12:32:13;;;;;;;4.07;1.38;;;19.00;99.90;;;;;;5043192;28;20196;-78
2022/11/04 12:34:57;;;;;;;2.95;1.27;;;19.00;99.90;;;;;;5043043;28;20203;-78
2022/11/04 12:37:35;;;;;;;4.38;1.35;;;19.00;99.90;;;;;;5045585;28;20231;-79
2022/11/04 12:40:14;;;;;;;3.75;1.10;;;19.00;99.90;;;;;;5049525;28;20671;-81
2022/11/04 12:43:03;;;;;;;6.43;1.27;;;19.00;99.90;;;;;;5044507;28;20197;-78
2022/11/04 12:45:45;;;;;;;5.43;1.45;;;19.00;99.90;;;;;;5044401;28;20246;-79
2022/11/04 12:48:30;;;;;;;2.95;1.17;;;19.00;99.90;;;;;;5047050;28;20285;-79
2022/11/04 12:51:12;;;;;;;3.95;1.33;;;18.90;99.90;;;;;;5055207;28;20208;-78
2022/11/04 12:54:38;;;;;;;4.00;1.00;;;19.00;99.90;;;;;;5055301;28;20199;-80
2022/11/04 12:57:20;;;;;;;4.85;1.33;;;18.90;99.90;;;;;;5048456;28;20272;-78
2022/11/04 13:00:11;;;;;;;6.88;1.60;;;18.90;99.90;;;;;;5048701;28;20216;-78
2022/11/04 13:02:48;;;;;;;6.50;1.50;;;18.80;99.90;;;;;;5049092;28;20203;-78
2022/11/04 13:05:41;;;;;;;3.55;1.15;;;18.90;99.90;;;;;;5046565;28;20208;-79
2022/11/04 13:08:19;;;;;;;3.92;1.30;;;18.80;99.90;;;;;;5047428;28;20219;-79
2022/11/04 13:10:56;;;;;;;5.70;1.20;;;18.80;99.90;;;;;;5050027;28;20667;-79
2022/11/04 13:13:33;;;;;;;4.80;1.45;;;18.80;99.90;;;;;;5044004;28;20227;-79
2022/11/04 13:16:11;;;;;;;4.68;1.13;;;18.80;99.90;;;;;;5043602;28;20235;-79
2022/11/04 13:18:44;;;;;;;3.42;1.30;;;18.80;99.90;;;;;;5040377;28;21717;-78
2022/11/04 13:21:18;;;;;;;7.85;1.42;;;18.70;99.90;;;;;;5044146;28;21955;-79
2022/11/04 13:23:56;;;;;;;7.00;1.30;;;18.70;99.90;;;;;;5043868;28;20235;-79
2022/11/04 13:26:27;;;;;;;6.45;1.55;;;18.70;99.90;;;;;;5042606;28;20671;-79
2022/11/04 13:29:03;;;;;;;3.50;1.20;;;18.60;99.90;;;;;;5044129;28;20674;-77
2022/11/04 13:31:46;;;;;;;3.17;1.15;;;18.60;99.90;;;;;;5043679;28;20283;-78
2022/11/04 13:34:24;;;;;;;6.43;1.40;;;18.60;99.90;;;;;;5042695;28;21321;-79
2022/11/04 13:37:06;;;;;;;5.18;1.40;;;18.60;99.90;;;;;;5040662;28;20342;-78
2022/11/04 13:39:40;;;;;;;4.18;1.20;;;18.50;99.90;;;;;;5046462;28;20681;-78
2022/11/04 13:42:52;;;;;;;6.53;1.30;;;18.50;99.90;;;;;;5046688;28;20196;-78
2022/11/04 13:45:23;;;;;;;5.97;1.40;;;18.50;99.90;;;;;;5041415;28;20199;-78
2022/11/04 13:47:59;;;;;;;4.35;1.38;;;18.50;99.90;;;;;;5042709;28;20196;-78
2022/11/04 13:50:37;;;;;;;5.00;1.42;;;18.50;99.90;;;;;;5042574;28;20207;-78
2022/11/04 13:53:10;;;;;;;5.10;1.33;;;18.50;99.90;;;;;;5041979;28;20209;-78
2022/11/04 13:55:52;;;;;;;5.80;1.63;;;18.40;99.90;;;;;;5041622;28;20279;-78
2022/11/04 13:58:27;;;;;;;5.97;1.30;;;18.40;99.90;;;;;;5040739;28;20231;-77
2022/11/04 14:01:18;;;;;;;3.35;1.27;;;18.40;99.90;;;;;;5038695;28;20203;-78
2022/11/04 14:04:04;;;;;;;6.45;1.63;;;18.40;99.90;;;;;;5040829;28;20200;-78
2022/11/04 14:06:50;;;;;;;4.43;1.50;;;18.30;99.90;;;;;;5042029;28;20203;-78
2022/11/04 14:09:52;;;;;;;5.45;1.90;;;18.30;99.90;;;;;;5041751;28;20204;-78
2022/11/04 14:12:32;;;;;;;4.18;1.48;;;18.30;99.90;;;;;;5046615;28;20694;-79
2022/11/04 14:15:14;;;;;;;5.88;1.80;;;18.30;99.90;;;;;;5048548;28;20207;-77
2022/11/04 14:18:28;;;;;;;6.72;1.55;;;18.30;99.90;;;;;;5049210;28;22226;-78